createdAt,value
2022-12-09T00:03:23.050Z,9.17
2022-12-09T00:08:24.642Z,7.67
2022-12-09T00:13:30.317Z,8.87
2022-12-09T00:18:36.646Z,8.97
2022-12-09T00:23:42.909Z,9.03
2022-12-09T00:28:49.948Z,8.57
2022-12-09T00:33:58.408Z,9.97
2022-12-09T00:39:04.214Z,9.50
2022-12-09T00:44:10.931Z,9.63
2022-12-09T00:49:16.319Z,9.27
2022-12-09T00:54:22.117Z,9.37
2022-12-09T00:59:28.588Z,9.00
2022-12-09T01:04:34.733Z,8.87
2022-12-09T01:09:40.373Z,9.10
2022-12-09T01:14:45.745Z,9.67
2022-12-09T01:19:51.225Z,9.60
2022-12-09T01:24:56.739Z,9.00
2022-12-09T01:30:02.220Z,8.40
2022-12-09T01:35:08.793Z,9.00
2022-12-09T01:40:17.650Z,7.97
2022-12-09T01:45:29.238Z,7.70
2022-12-09T01:50:37.832Z,7.73
2022-12-09T01:55:43.830Z,7.97
2022-12-09T02:00:49.565Z,7.40
2022-12-09T02:05:57.297Z,7.50
2022-12-09T02:11:11.965Z,6.63
2022-12-09T02:16:22.570Z,7.97
2022-12-09T02:21:31.712Z,8.07
2022-12-09T02:26:44.635Z,7.93
2022-12-09T02:32:12.330Z,9.00
2022-12-09T02:37:27.002Z,6.97
2022-12-09T02:42:35.888Z,6.47
2022-12-09T02:47:45.047Z,5.83
2022-12-09T02:52:54.554Z,6.43
2022-12-09T02:58:02.325Z,5.00
2022-12-09T03:03:12.440Z,4.67
2022-12-09T03:08:49.966Z,5.33
2022-12-09T03:14:03.041Z,5.10
2022-12-09T03:19:18.050Z,4.87
2022-12-09T03:24:29.178Z,4.97
2022-12-09T03:29:37.600Z,4.23
2022-12-09T03:34:46.025Z,3.93
2022-12-09T03:39:53.101Z,4.60
2022-12-09T03:45:01.628Z,5.10
2022-12-09T03:50:10.640Z,4.57
2022-12-09T03:55:36.896Z,4.50
2022-12-09T04:00:43.633Z,4.10
2022-12-09T04:05:49.262Z,4.50
2022-12-09T04:10:54.729Z,3.80
2022-12-09T04:16:01.268Z,4.67
2022-12-09T04:21:09.785Z,4.30
2022-12-09T04:26:17.965Z,3.40
2022-12-09T04:31:23.662Z,4.43
2022-12-09T04:36:29.556Z,4.43
2022-12-09T04:41:35.358Z,4.27
2022-12-09T04:46:41.247Z,3.90
2022-12-09T04:51:47.048Z,4.20
2022-12-09T04:56:52.706Z,4.13
2022-12-09T05:01:58.694Z,4.70
2022-12-09T05:07:04.828Z,3.73
2022-12-09T05:12:10.534Z,3.90
2022-12-09T05:17:16.174Z,3.40
2022-12-09T05:22:22.415Z,3.63
2022-12-09T05:27:28.274Z,3.60
2022-12-09T05:32:34.268Z,4.23
2022-12-09T05:37:40.118Z,4.40
2022-12-09T05:42:45.731Z,3.93
2022-12-09T05:47:51.339Z,3.80
2022-12-09T05:52:56.950Z,3.83
2022-12-09T05:58:02.927Z,3.27
2022-12-09T06:03:08.786Z,3.73
2022-12-09T06:08:14.776Z,3.63
2022-12-09T06:13:20.504Z,4.13
2022-12-09T06:18:26.126Z,4.33
2022-12-09T06:23:32.163Z,4.20
2022-12-09T06:28:37.797Z,4.30
2022-12-09T06:33:59.993Z,5.43
2022-12-09T06:38:50.908Z,5.03
2022-12-09T06:43:58.983Z,5.13
2022-12-09T06:49:05.484Z,5.50
2022-12-09T06:54:11.160Z,4.93
2022-12-09T06:59:16.829Z,5.90
2022-12-09T07:04:23.213Z,5.43
2022-12-09T07:09:30.222Z,5.40
2022-12-09T07:14:36.985Z,5.30
2022-12-09T07:19:42.724Z,4.77
2022-12-09T07:24:48.755Z,5.20
2022-12-09T07:29:54.875Z,5.17
2022-12-09T07:35:00.770Z,5.00
2022-12-09T07:40:08.139Z,4.73
2022-12-09T07:45:14.642Z,4.43
2022-12-09T07:50:20.446Z,4.73
2022-12-09T07:55:26.270Z,4.37
2022-12-09T08:00:32.155Z,4.33
2022-12-09T08:05:37.829Z,4.10
2022-12-09T08:10:44.786Z,5.90
2022-12-09T08:15:50.585Z,5.23
2022-12-09T08:20:56.185Z,4.93
2022-12-09T08:26:01.916Z,4.70
2022-12-09T08:31:19.575Z,4.57
2022-12-09T08:36:28.399Z,3.50
2022-12-09T08:41:38.102Z,4.17
2022-12-09T08:46:46.599Z,3.30
2022-12-09T08:51:54.739Z,3.83
2022-12-09T08:57:00.573Z,3.57
2022-12-09T09:02:06.735Z,3.90
2022-12-09T09:07:13.359Z,3.67
2022-12-09T09:12:19.605Z,3.27
2022-12-09T09:17:25.703Z,2.83
2022-12-09T09:22:31.967Z,3.70
2022-12-09T09:27:39.679Z,3.80
2022-12-09T09:32:45.427Z,2.50
2022-12-09T09:37:51.950Z,3.67
2022-12-09T09:43:00.011Z,3.00
2022-12-09T09:48:07.475Z,3.40
2022-12-09T09:53:16.218Z,3.60
2022-12-09T09:58:31.050Z,2.97
2022-12-09T10:03:44.332Z,3.80
2022-12-09T10:08:58.292Z,3.30
2022-12-09T10:14:16.323Z,3.60
2022-12-09T10:19:28.371Z,3.40
2022-12-09T10:24:40.387Z,3.50
2022-12-09T10:30:03.812Z,3.50
2022-12-09T10:35:18.836Z,4.00
2022-12-09T10:40:50.532Z,4.00
2022-12-09T10:51:24.885Z,3.87
2022-12-09T10:56:34.070Z,4.87
2022-12-09T11:01:51.788Z,4.40
2022-12-09T11:07:15.768Z,4.80
2022-12-09T11:12:36.690Z,4.63
2022-12-09T11:17:40.733Z,4.77
2022-12-09T11:22:47.543Z,4.13
2022-12-09T11:27:59.088Z,4.50
2022-12-09T11:33:08.128Z,4.20
2022-12-09T11:38:29.289Z,4.30
2022-12-09T11:43:47.159Z,4.00
2022-12-09T11:49:01.489Z,3.77
2022-12-09T11:54:18.969Z,3.43
2022-12-09T11:59:27.556Z,4.37
2022-12-09T12:04:36.054Z,3.80
2022-12-09T12:09:50.266Z,6.23
2022-12-09T12:14:58.697Z,3.93
2022-12-09T12:20:06.311Z,4.13
2022-12-09T12:25:34.465Z,4.40
2022-12-09T12:30:59.298Z,4.10
2022-12-09T12:36:10.702Z,4.93
2022-12-09T12:41:19.126Z,4.87
2022-12-09T12:46:45.368Z,3.80
2022-12-09T12:52:26.420Z,3.83
2022-12-09T12:57:24.642Z,4.83
2022-12-09T13:02:48.290Z,5.13
2022-12-09T13:08:00.295Z,4.13
2022-12-09T13:13:07.952Z,4.80
2022-12-09T13:18:16.389Z,4.23
2022-12-09T13:23:48.990Z,4.93
2022-12-09T13:29:27.393Z,5.20
2022-12-09T13:34:41.822Z,5.47
2022-12-09T13:39:53.082Z,4.83
2022-12-09T13:45:01.581Z,3.93
2022-12-09T13:50:11.075Z,4.23
2022-12-09T13:55:22.803Z,4.60
2022-12-09T14:00:28.865Z,5.10
2022-12-09T14:05:37.374Z,5.10
2022-12-09T14:10:46.561Z,4.97
2022-12-09T14:16:11.668Z,4.13
2022-12-09T14:21:23.012Z,5.13
2022-12-09T14:26:46.394Z,5.90
2022-12-09T14:31:58.038Z,6.57
2022-12-09T14:37:09.203Z,8.67
2022-12-09T14:42:34.425Z,6.00
2022-12-09T14:47:42.892Z,5.43
2022-12-09T14:52:57.698Z,4.23
2022-12-09T14:58:03.823Z,6.20
2022-12-09T15:03:44.873Z,4.37
2022-12-09T15:08:36.087Z,5.20
2022-12-09T15:13:45.118Z,3.73
2022-12-09T15:18:52.646Z,5.77
2022-12-09T15:24:00.365Z,4.60
2022-12-09T15:29:06.648Z,4.30
2022-12-09T15:34:15.060Z,3.83
2022-12-09T15:39:26.360Z,3.97
2022-12-09T15:44:35.288Z,3.97
2022-12-09T15:49:52.890Z,4.07
2022-12-09T15:55:00.918Z,4.23
2022-12-09T16:00:07.723Z,4.43
2022-12-09T16:05:13.850Z,4.80
2022-12-09T16:10:19.766Z,4.30
2022-12-09T16:15:28.311Z,4.00
2022-12-09T16:20:40.144Z,4.77
2022-12-09T16:25:47.334Z,5.03
2022-12-09T16:30:55.901Z,6.23
2022-12-09T16:36:07.338Z,4.90
2022-12-09T16:41:13.639Z,4.23
2022-12-09T16:46:27.684Z,4.53
2022-12-09T16:51:33.604Z,4.83
2022-12-09T16:56:39.079Z,4.63
2022-12-09T17:01:44.752Z,5.73
2022-12-09T17:06:50.529Z,4.83
2022-12-09T17:11:55.903Z,4.20
2022-12-09T17:17:02.839Z,3.10
2022-12-09T17:22:10.604Z,2.87
2022-12-09T17:27:16.270Z,2.97
2022-12-09T17:32:21.833Z,2.60
2022-12-09T17:37:27.414Z,3.20
2022-12-09T17:42:32.919Z,3.50
2022-12-09T17:47:38.631Z,3.13
2022-12-09T17:52:44.156Z,3.43
2022-12-09T17:57:54.065Z,3.67
2022-12-09T18:02:56.616Z,3.43
2022-12-09T18:08:02.029Z,4.00
2022-12-09T18:13:07.549Z,4.50
2022-12-09T18:18:13.097Z,5.43
2022-12-09T18:23:18.631Z,5.87
2022-12-09T18:28:26.295Z,8.20
2022-12-09T18:33:31.958Z,8.53
2022-12-09T18:38:37.994Z,8.80
2022-12-09T18:43:45.227Z,9.43
2022-12-09T18:48:52.186Z,9.87
2022-12-09T18:54:01.915Z,10.43
2022-12-09T18:59:08.939Z,12.23
2022-12-09T19:04:17.526Z,11.07
2022-12-09T19:09:34.837Z,8.57
2022-12-09T19:14:41.094Z,8.40
2022-12-09T19:19:47.545Z,9.63
2022-12-09T19:24:53.016Z,5.97
2022-12-09T19:29:58.388Z,7.20
2022-12-09T19:35:04.321Z,9.83
2022-12-09T19:40:11.217Z,7.57
2022-12-09T19:45:16.672Z,7.50
2022-12-09T19:50:22.841Z,7.13
2022-12-09T19:55:28.303Z,6.63
2022-12-09T20:00:39.740Z,6.80
2022-12-09T20:05:43.972Z,6.63
2022-12-09T20:10:49.998Z,5.50
2022-12-09T20:15:55.496Z,4.53
2022-12-09T20:21:06.120Z,5.13
2022-12-09T20:26:17.391Z,4.57
2022-12-09T20:31:28.780Z,4.77
2022-12-09T20:36:36.615Z,5.03
2022-12-09T20:41:42.815Z,3.70
2022-12-09T20:46:50.852Z,4.83
2022-12-09T20:51:56.715Z,4.80
2022-12-09T20:57:02.110Z,5.33
2022-12-09T21:02:13.444Z,5.00
2022-12-09T21:07:14.918Z,5.53
2022-12-09T21:12:20.441Z,4.87
2022-12-09T21:17:27.031Z,5.70
2022-12-09T21:22:33.493Z,5.77
2022-12-09T21:27:40.865Z,5.57
2022-12-09T21:32:46.713Z,5.40
2022-12-09T21:37:56.095Z,6.47
2022-12-09T21:42:59.267Z,6.87
2022-12-09T21:48:04.787Z,5.40
2022-12-09T21:53:10.308Z,5.90
2022-12-09T21:58:15.853Z,7.13
2022-12-09T22:03:21.259Z,11.37
2022-12-09T22:08:26.713Z,11.53
2022-12-09T22:13:37.732Z,8.80
2022-12-09T22:18:39.613Z,8.33
2022-12-09T22:23:45.820Z,6.20
2022-12-09T22:28:51.335Z,6.27
2022-12-09T22:34:03.625Z,5.83
2022-12-09T22:39:11.446Z,7.47
2022-12-09T22:44:18.873Z,7.77
2022-12-09T22:49:24.268Z,7.40
2022-12-09T22:54:29.712Z,6.93
2022-12-09T22:59:41.391Z,6.07
2022-12-09T23:04:42.440Z,6.30
2022-12-09T23:09:47.805Z,6.17
2022-12-09T23:14:53.187Z,7.03
2022-12-09T23:19:58.567Z,5.50
2022-12-09T23:25:04.556Z,5.13
2022-12-09T23:30:11.121Z,5.70
2022-12-09T23:35:16.827Z,5.77
2022-12-09T23:40:22.289Z,6.70
2022-12-09T23:45:27.831Z,6.00
2022-12-09T23:50:33.282Z,7.33
2022-12-09T23:55:43.352Z,5.40
